Terminal Aerodrome Forecast
Issued by NWS

Current Version | Previous Version | Text Only | Print | Product List | Glossary On
Versions: 1 2 3 4 5 6 7 8 9 10 11 12 13 14 15 16 17 18 19 20 21 22 23
000
FTUS43 KMQT 202300
TAFCMX
TAF
KCMX 202338Z 2100/2124 32004KT P6SM SCT020 BKN050
      TEMPO 2100/2102 SCT006 BKN020
     FM210200 02006KT P6SM SCT020 BKN040
      TEMPO 2102/2104 SCT006 BKN020
     FM210400 03008KT P6SM BKN020
     FM211600 35012KT P6SM SCT030=

USA.gov is the U.S. government's official web portal to all federal, state and local government web resources and services.